Home > Products > Valid Products > TAF

000
FTUS41 KCTP 311427 AAA
TAFIPT
TAF AMD
KIPT 311427Z 3114/0112 00000KT P6SM OVC060
     FM010000 07003KT P6SM OVC045
     FM010500 03004KT P6SM OVC040
     FM011000 36005KT P6SM -RA OVC030=



000
FTUS41 KCTP 311427 AAA
TAFBFD
TAF AMD
KBFD 311427Z 3114/0112 14003KT P6SM OVC035
     FM311800 16005KT P6SM -RA OVC030
     FM312300 10005KT 5SM -RA BR OVC025
     FM010500 05005KT 3SM -RA BR OVC015=



000
FTUS41 KCTP 311427 AAA
TAFMDT
TAF AMD
KMDT 311427Z 3114/0112 11005KT P6SM OVC060
     FM010000 05003KT P6SM OVC045
     FM010500 02005KT P6SM OVC040
     FM011000 35008KT P6SM -RA OVC030=



000
FTUS41 KCTP 311427 AAA
TAFUNV
TAF AMD
KUNV 311427Z 3114/0112 VRB03KT P6SM OVC050
     FM311800 17003KT P6SM OVC040
     FM010000 09003KT P6SM VCSH OVC030
     FM010600 03005KT P6SM VCSH OVC025=



000
FTUS41 KCTP 311427 AAA
TAFAOO
TAF AMD
KAOO 311427Z 3114/0112 00000KT P6SM OVC050
     FM311800 16003KT P6SM OVC040
     FM010000 09003KT 6SM -RA BR OVC030
     FM010600 04005KT 5SM -RA BR OVC025=



000
FTUS41 KCTP 311427 AAA
TAFJST
TAF AMD
KJST 311427Z 3114/0112 16004KT P6SM OVC040
     FM311800 17005KT P6SM OVC030
     FM010000 10005KT 5SM -RA BR OVC025
     FM010500 05005KT 2SM -RA BR OVC010=



000
FTUS41 KCTP 311154
TAFMDT
TAF
KMDT 311154Z 3112/0112 09003KT P6SM OVC050
     FM010000 05003KT P6SM OVC045
     FM010500 02005KT P6SM OVC040
     FM011000 35008KT P6SM -RA OVC030=



000
FTUS41 KCTP 311154
TAFBFD
TAF
KBFD 311154Z 3112/0112 17003KT P6SM OVC040
     FM311800 16005KT P6SM -RA OVC030
     FM312300 10005KT 5SM -RA BR OVC025
     FM010500 05005KT 3SM -RA BR OVC015=



000
FTUS41 KCTP 311154
TAFIPT
TAF
KIPT 311154Z 3112/0112 VRB03KT P6SM OVC050
     FM010000 07003KT P6SM OVC045
     FM010500 03004KT P6SM OVC040
     FM011000 36005KT P6SM -RA OVC030=



000
FTUS41 KCTP 311154
TAFUNV
TAF
KUNV 311154Z 3112/0112 00000KT P6SM OVC050
     FM311800 17003KT P6SM OVC040
     FM010000 09003KT P6SM VCSH OVC030
     FM010600 03005KT P6SM VCSH OVC025=



000
FTUS41 KCTP 311154
TAFJST
TAF
KJST 311154Z 3112/0112 21004KT P6SM OVC040
     FM311800 17005KT P6SM OVC030
     FM010000 10005KT 5SM -RA BR OVC025
     FM010500 05005KT 2SM -RA BR OVC010=



000
FTUS41 KCTP 311154
TAFAOO
TAF
KAOO 311154Z 3112/0112 00000KT P6SM OVC050
     FM311800 16003KT P6SM OVC040
     FM010000 09003KT 6SM -RA BR OVC030
     FM010600 04005KT 5SM -RA BR OVC025=



000
FTUS41 KCTP 310928 AAB
TAFMDT
TAF AMD
KMDT 310928Z 3109/0106 10003KT P6SM OVC050=



000
FTUS41 KCTP 310928 AAB
TAFAOO
TAF AMD
KAOO 310928Z 3109/0106 VRB03KT P6SM OVC050
     FM312300 09003KT 5SM BR OVC030=



000
FTUS41 KCTP 310928 AAC
TAFJST
TAF AMD
KJST 310928Z 3109/0106 00000KT P6SM OVC035
     FM311200 17004KT P6SM OVC025
     FM312200 10004KT 3SM -RA BR OVC015=



000
FTUS41 KCTP 310928 AAB
TAFIPT
TAF AMD
KIPT 310928Z 3109/0106 VRB02KT P6SM OVC050=



000
FTUS41 KCTP 310928 AAC
TAFBFD
TAF AMD
KBFD 310928Z 3109/0106 00000KT P6SM OVC035
     FM311200 17003KT P6SM OVC025
     FM312100 08004KT 5SM -RA BR OVC015=



000
FTUS41 KCTP 310928 AAB
TAFUNV
TAF AMD
KUNV 310928Z 3109/0106 VRB03KT P6SM OVC050
     FM010000 09003KT 5SM BR OVC030=



000
FTUS41 KCTP 310601 RRA
TAFMDT
TAF
KMDT 310601Z 3106/0106 11003KT P6SM OVC050=



000
FTUS41 KCTP 310601 RRA
TAFBFD
TAF
KBFD 310601Z 3106/0106 VRB03KT P6SM OVC035
     FM311200 17003KT P6SM OVC025
     FM312100 08004KT 5SM -RA BR OVC015=



000
FTUS41 KCTP 310601 RRA
TAFAOO
TAF
KAOO 310601Z 3106/0106 22003KT P6SM OVC050
     FM312300 09003KT 5SM BR OVC030=



000
FTUS41 KCTP 310601 RRA
TAFJST
TAF
KJST 310601Z 3106/0106 21003KT P6SM OVC035
     FM311200 17004KT P6SM OVC025
     FM312200 10004KT 3SM -RA BR OVC015=



000
FTUS41 KCTP 310601 RRA
TAFUNV
TAF
KUNV 310601Z 3106/0106 VRB03KT P6SM OVC050
     FM010000 09003KT 5SM BR OVC030=



000
FTUS41 KCTP 310601 RRA
TAFIPT
TAF
KIPT 310601Z 3106/0106 VRB02KT P6SM OVC050=



000
FTUS41 KCTP 310327 AAB
TAFBFD
TAF AMD
KBFD 310327Z 3103/3124 31007KT P6SM SCT025 BKN035
     FM311300 15007KT P6SM SCT030 BKN100
     FM311700 16007KT P6SM -SHRA BKN035 OVC070=



000
FTUS41 KCTP 310327 AAA
TAFIPT
TAF AMD
KIPT 310327Z 3103/3124 34007KT P6SM SCT050
     FM311500 08007KT P6SM SCT050 BKN100
     FM312300 12007KT P6SM -SHRA BKN040 OVC080=



000
FTUS41 KCTP 310327 AAA
TAFAOO
TAF AMD
KAOO 310327Z 3103/3124 31007KT P6SM BKN040
     FM311400 16007KT P6SM SCT040 BKN100
     FM312100 17007KT P6SM -SHRA BKN040 OVC080=



000
FTUS41 KCTP 310327 AAA
TAFUNV
TAF AMD
KUNV 310327Z 3103/3124 30007KT P6SM BKN040
     FM311400 16007KT P6SM SCT040 BKN100
     FM312100 17007KT P6SM -SHRA BKN040 OVC080=



000
FTUS41 KCTP 310327 AAA
TAFMDT
TAF AMD
KMDT 310327Z 3103/3124 35007KT P6SM BKN050
     FM311500 10007KT P6SM FEW050 SCT100=



000
FTUS41 KCTP 310327 AAB
TAFJST
TAF AMD
KJST 310327Z 3103/3124 31007KT P6SM SCT025 BKN035
     FM311700 17007KT P6SM -SHRA BKN035 OVC070=



000
FTUS41 KCTP 310107 AAA
TAFBFD
TAF AMD
KBFD 310107Z 3101/3124 31007KT P6SM BKN025
     FM311300 15007KT P6SM SCT030 BKN100
     FM311700 16007KT P6SM -SHRA BKN035 OVC070=



000
FTUS41 KCTP 310101 AAA
TAFJST
TAF AMD
KJST 310101Z 3101/3124 31007KT P6SM SCT025 BKN035
     FM311700 17007KT P6SM -SHRA BKN035 OVC070=



000
FTUS41 KCTP 302328
TAFJST
TAF
KJST 302328Z 3100/3124 29007KT P6SM BKN025 OVC035
     FM310500 31007KT P6SM SCT025 BKN035
     FM311700 17007KT P6SM -SHRA BKN035 OVC070=



000
FTUS41 KCTP 302328
TAFIPT
TAF
KIPT 302328Z 3100/3124 34007KT P6SM BKN050
     FM311500 08007KT P6SM SCT050 BKN100
     FM312300 12007KT P6SM -SHRA BKN040 OVC080=



000
FTUS41 KCTP 302328
TAFBFD
TAF
KBFD 302328Z 3100/3124 31007KT P6SM SCT025 BKN035
     FM311700 16007KT P6SM -SHRA BKN035 OVC070=



000
FTUS41 KCTP 302328
TAFMDT
TAF
KMDT 302328Z 3100/3124 35007KT P6SM BKN050
     FM311500 10007KT P6SM FEW050 SCT100=



000
FTUS41 KCTP 302328
TAFAOO
TAF
KAOO 302328Z 3100/3124 31007KT P6SM BKN040
     FM311400 16007KT P6SM SCT040 BKN100
     FM312100 17007KT P6SM -SHRA BKN040 OVC080=



000
FTUS41 KCTP 302328
TAFUNV
TAF
KUNV 302328Z 3100/3124 30007KT P6SM BKN040
     FM311400 16007KT P6SM SCT040 BKN100
     FM312100 17007KT P6SM -SHRA BKN040 OVC080=



000
FTUS41 KCTP 302137 AAA
TAFAOO
TAF AMD
KAOO 302137Z 3022/3118 31007KT P6SM BKN040
     FM311400 16007KT P6SM SCT040 BKN100=



000
FTUS41 KCTP 302137 AAA
TAFIPT
TAF AMD
KIPT 302137Z 3022/3118 34007KT P6SM BKN050
     FM311500 08007KT P6SM SCT050 BKN100=



000
FTUS41 KCTP 302137 AAB
TAFJST
TAF AMD
KJST 302137Z 3022/3118 29007KT P6SM SCT025 OVC035
     FM311700 17007KT P6SM -SHRA BKN035 OVC070=



000
FTUS41 KCTP 302137 AAA
TAFUNV
TAF AMD
KUNV 302137Z 3022/3118 30007KT P6SM BKN040
     FM311400 16007KT P6SM SCT040 BKN100=



000
FTUS41 KCTP 302137 AAA
TAFBFD
TAF AMD
KBFD 302137Z 3022/3118 31007KT P6SM SCT025 BKN035
     FM311700 16007KT P6SM -SHRA BKN035 OVC070=



000
FTUS41 KCTP 302137 AAA
TAFMDT
TAF AMD
KMDT 302137Z 3022/3118 35007KT P6SM BKN050
     FM311500 10007KT P6SM FEW050 SCT100=



000
FTUS41 KCTP 302021 AAA
TAFJST
TAF AMD
KJST 302021Z 3020/3118 30007KT P6SM BKN025 OVC035
     FM311200 17003KT 6SM -SHRA OVC025=



000
FTUS41 KCTP 301720
TAFIPT
TAF
KIPT 301720Z 3018/3118 VRB03KT P6SM BKN040=



000
FTUS41 KCTP 301720
TAFUNV
TAF
KUNV 301720Z 3018/3118 26005KT P6SM SCT025 BKN050
     FM311200 VRB03KT 6SM -SHRA SCT025 OVC050=



000
FTUS41 KCTP 301720
TAFBFD
TAF
KBFD 301720Z 3018/3118 30008KT P6SM VCSH OVC025
     FM302100 30005KT P6SM SCT025 OVC035
     FM311400 16002KT 6SM -SHRA OVC025=



000
FTUS41 KCTP 301720
TAFAOO
TAF
KAOO 301720Z 3018/3118 30007KT P6SM SCT025 BKN050
     FM311200 VRB03KT 6SM -SHRA BKN025 OVC050=



000
FTUS41 KCTP 301720
TAFMDT
TAF
KMDT 301720Z 3018/3118 32010KT P6SM BKN040
     FM302100 32004KT P6SM SCT250=



000
FTUS41 KCTP 301720
TAFJST
TAF
KJST 301720Z 3018/3118 30007KT P6SM SCT025 OVC035
     FM311200 17003KT 6SM -SHRA OVC025=



000
FTUS41 KCTP 301528 AAA
TAFUNV
TAF AMD
KUNV 301528Z 3015/3112 26005KT P6SM SCT025 BKN050
     FM301800 29005KT P6SM SCT050
     FM310700 00000KT P6SM BKN100=



000
FTUS41 KCTP 301528 AAA
TAFMDT
TAF AMD
KMDT 301528Z 3015/3112 32010KT P6SM SCT050
     FM310900 VRB03KT P6SM BKN150=



000
FTUS41 KCTP 301528 AAB
TAFBFD
TAF AMD
KBFD 301528Z 3015/3112 30008KT P6SM VCSH OVC025
     FM302000 30005KT P6SM OVC035
     FM310500 00000KT P6SM OVC050=



000
FTUS41 KCTP 301528 AAA
TAFJST
TAF AMD
KJST 301528Z 3015/3112 29005KT P6SM OVC018
     FM301800 30005KT P6SM OVC025
     FM302000 30006KT P6SM OVC050
     FM310600 20004KT P6SM OVC050=



000
FTUS41 KCTP 301528 AAB
TAFAOO
TAF AMD
KAOO 301528Z 3015/3112 30005KT P6SM SCT025 BKN050
     FM301600 32005KT P6SM BKN050
     FM310600 00000KT P6SM BKN100=



000
FTUS41 KCTP 301528 AAA
TAFIPT
TAF AMD
KIPT 301528Z 3015/3112 VRB03KT P6SM BKN040
     FM301800 28005KT P6SM SCT050
     FM310800 00000KT P6SM BKN100=



000
FTUS41 KCTP 301450 AAA
TAFBFD
TAF AMD
KBFD 301450Z 3015/3112 30008KT P6SM VCSH OVC025
     FM301900 30005KT P6SM OVC035
     FM310500 00000KT P6SM OVC050=



000
FTUS41 KCTP 301246 AAA
TAFAOO
TAF AMD
KAOO 301246Z 3013/3112 30005KT P6SM BKN025 BKN050
     FM301600 32005KT P6SM BKN050
     FM310600 00000KT P6SM BKN100=



000
FTUS41 KCTP 301158
TAFMDT
TAF
KMDT 301158Z 3012/3112 32005KT P6SM FEW050
     FM301500 32008KT P6SM SCT050
     FM310900 VRB03KT P6SM BKN150=



000
FTUS41 KCTP 301158
TAFAOO
TAF
KAOO 301158Z 3012/3112 30005KT P6SM SCT025 BKN050
     FM301800 32005KT P6SM SCT050
     FM310600 00000KT P6SM BKN100=



000
FTUS41 KCTP 301158
TAFUNV
TAF
KUNV 301158Z 3012/3112 26005KT P6SM SCT025 BKN050
     FM301800 29005KT P6SM SCT050
     FM310700 00000KT P6SM BKN100=



000
FTUS41 KCTP 301158
TAFBFD
TAF
KBFD 301158Z 3012/3112 29005KT P6SM VCSH OVC015
     FM301800 30005KT P6SM OVC025
     FM310500 00000KT P6SM OVC050=



000
FTUS41 KCTP 301158
TAFIPT
TAF
KIPT 301158Z 3012/3112 VRB03KT P6SM SCT025 BKN050
     FM301800 28005KT P6SM SCT050
     FM310800 00000KT P6SM BKN100=



000
FTUS41 KCTP 301158
TAFJST
TAF
KJST 301158Z 3012/3112 29005KT P6SM OVC010
     FM301800 30005KT P6SM OVC025
     FM310600 20004KT P6SM OVC050=



000
FTUS41 KCTP 300933 AAB
TAFJST
TAF AMD
KJST 300933Z 3010/3106 29005KT P6SM OVC015
     FM301800 29005KT P6SM OVC035=



000
FTUS41 KCTP 300933 AAB
TAFAOO
TAF AMD
KAOO 300933Z 3010/3106 30005KT P6SM BKN040
     FM301800 31005KT P6SM SCT050=



000
FTUS41 KCTP 300933 AAD
TAFBFD
TAF AMD
KBFD 300933Z 3010/3106 29005KT P6SM BKN008 OVC015
     FM301500 30005KT P6SM OVC025
     FM301800 30005KT P6SM OVC035=



000
FTUS41 KCTP 300933 AAE
TAFMDT
TAF AMD
KMDT 300933Z 3010/3106 34004KT P6SM FEW050
     FM301400 31008KT P6SM SCT050=



000
FTUS41 KCTP 300933 AAB
TAFUNV
TAF AMD
KUNV 300933Z 3010/3106 26005KT P6SM BKN050
     FM301800 30005KT P6SM SCT050=



000
FTUS41 KCTP 300933 AAB
TAFIPT
TAF AMD
KIPT 300933Z 3010/3106 VRB03KT P6SM BKN040
     FM301800 29005KT P6SM SCT050=



000
FTUS41 KCTP 300908 AAD
TAFMDT
TAF AMD
KMDT 300908Z 3009/3106 34004KT P6SM FEW050
     FM301400 31008KT P6SM SCT050=



000
FTUS41 KCTP 300829 AAC
TAFMDT
TAF AMD
KMDT 300829Z 3008/3106 34004KT 1/4SM FG BKN001
     FM300930 32003KT 3SM BR SCT005
     FM301400 31008KT P6SM SCT050=



000
FTUS41 KCTP 300602 RRA
TAFUNV
TAF
KUNV 300602Z 3006/3106 29005KT P6SM BKN050
     FM301800 30005KT P6SM SCT050=



000
FTUS41 KCTP 300602 RRA
TAFJST
TAF
KJST 300602Z 3006/3106 29007KT P6SM OVC040
     FM301000 29005KT P6SM OVC025
     FM301800 29005KT P6SM OVC035=



000
FTUS41 KCTP 300602 RRA
TAFAOO
TAF
KAOO 300602Z 3006/3106 30005KT P6SM BKN050
     FM301800 31005KT P6SM SCT050=



000
FTUS41 KCTP 300602 RRA
TAFMDT
TAF
KMDT 300602Z 3006/3106 00000KT 1/4SM FG VV002
     FM300800 32003KT 3SM BR SCT005
     FM301400 31008KT P6SM SCT050=



000
FTUS41 KCTP 300602 RRA
TAFBFD
TAF
KBFD 300602Z 3006/3106 31004KT P6SM VCSH OVC015
     FM301000 30004KT P6SM OVC009
     FM301500 30005KT P6SM OVC015
     FM301800 30005KT P6SM OVC035=



000
FTUS41 KCTP 300602 RRA
TAFIPT
TAF
KIPT 300602Z 3006/3106 29003KT P6SM BKN050
     FM301800 29005KT P6SM SCT050=



000
FTUS41 KCTP 300504 AAB
TAFMDT
TAF AMD
KMDT 300504Z 3005/3024 00000KT 1/4SM FG VV002
     FM300700 33003KT 3SM BR SCT005
     FM301300 31008KT P6SM SCT050=



000
FTUS41 KCTP 300330 AAA
TAFAOO
TAF AMD
KAOO 300330Z 3004/3024 31007KT P6SM BKN050
     FM300900 29007KT P6SM BKN040
     FM301500 30008KT P6SM BKN050=



000
FTUS41 KCTP 300330 AAA
TAFJST
TAF AMD
KJST 300330Z 3004/3024 29008G15KT P6SM BKN035
     FM300900 29008G15KT P6SM BKN030
     FM301200 30007KT P6SM OVC018
     FM301500 31008KT P6SM BKN035=



000
FTUS41 KCTP 300330 AAA
TAFUNV
TAF AMD
KUNV 300330Z 3004/3024 29007KT P6SM BKN050
     FM300900 28007KT P6SM BKN040
     FM301500 29008KT P6SM BKN050=



000
FTUS41 KCTP 300330 AAC
TAFBFD
TAF AMD
KBFD 300330Z 3004/3024 29008KT P6SM VCSH BKN014 OVC030
     FM301400 30008KT P6SM BKN035=



000
FTUS41 KCTP 300330 AAA
TAFIPT
TAF AMD
KIPT 300330Z 3004/3024 29007KT P6SM BKN060
     FM301500 30008KT P6SM BKN040=



000
FTUS41 KCTP 300330 AAA
TAFMDT
TAF AMD
KMDT 300330Z 3004/3024 26004KT 5SM BR BKN070
     FM300800 30007KT P6SM SCT070
     FM301500 31008KT P6SM SCT050=



000
FTUS41 KCTP 300224 AAB
TAFBFD
TAF AMD
KBFD 300224Z 3002/3024 31008KT P6SM VCSH OVC030
     FM301400 30008KT P6SM BKN035=



000
FTUS41 KCTP 300059 AAA
TAFBFD
TAF AMD
KBFD 300059Z 3001/3024 29008G16KT P6SM VCSH BKN040
     FM300700 29007KT P6SM VCSH OVC035
     FM301400 30008KT P6SM BKN035=



000
FTUS41 KCTP 292332
TAFIPT
TAF
KIPT 292332Z 3000/3024 29007KT P6SM SCT050
     FM301500 30008KT P6SM BKN050=



000
FTUS41 KCTP 292332
TAFAOO
TAF
KAOO 292332Z 3000/3024 28008KT P6SM BKN050
     FM300300 29007KT P6SM BKN040
     FM301500 30008KT P6SM BKN050=



000
FTUS41 KCTP 292332
TAFBFD
TAF
KBFD 292332Z 3000/3024 29007KT P6SM BKN040
     FM300400 29007KT P6SM VCSH OVC035
     FM301400 30008KT P6SM BKN035=



000
FTUS41 KCTP 292332
TAFMDT
TAF
KMDT 292332Z 3000/3024 29006KT P6SM SCT100 BKN250
     FM300400 30007KT P6SM SCT250
     FM301500 31008KT P6SM SCT050=



000
FTUS41 KCTP 292332
TAFUNV
TAF
KUNV 292332Z 3000/3024 28008KT P6SM BKN050
     FM300300 28007KT P6SM SCT040
     FM301500 29008KT P6SM BKN050=



000
FTUS41 KCTP 292332
TAFJST
TAF
KJST 292332Z 3000/3024 28008G15KT P6SM BKN040
     FM300500 29008G15KT P6SM BKN030
     FM301200 30007KT P6SM OVC018
     FM301500 31008KT P6SM BKN035=



000
FTUS41 KCTP 292132 AAB
TAFJST
TAF AMD
KJST 292132Z 2922/3018 27010G20KT P6SM BKN040
     FM300500 29008G15KT P6SM BKN030
     FM301200 30007KT P6SM OVC018
     FM301500 31008KT P6SM BKN035=



000
FTUS41 KCTP 292132 AAB
TAFBFD
TAF AMD
KBFD 292132Z 2922/3018 26008KT P6SM BKN040
     FM300400 28007KT P6SM VCSH OVC035
     FM301400 30008KT P6SM BKN035=



000
FTUS41 KCTP 292132 AAA
TAFIPT
TAF AMD
KIPT 292132Z 2922/3018 29007KT P6SM SCT050
     FM301500 30008KT P6SM BKN050=



000
FTUS41 KCTP 292132 AAA
TAFMDT
TAF AMD
KMDT 292132Z 2922/3018 29006KT P6SM SCT100 BKN250
     FM300400 30007KT P6SM SCT250
     FM301500 31008KT P6SM SCT050=



000
FTUS41 KCTP 292132 AAA
TAFAOO
TAF AMD
KAOO 292132Z 2922/3018 28012G22KT P6SM SCT050
     FM300100 29007KT P6SM SCT040
     FM301500 30008KT P6SM BKN050=



000
FTUS41 KCTP 292132 AAA
TAFUNV
TAF AMD
KUNV 292132Z 2922/3018 27008G16KT P6SM SCT050
     FM300100 28007KT P6SM SCT040
     FM301500 29008KT P6SM BKN050=



000
FTUS41 KCTP 291931 AAA
TAFBFD
TAF AMD
KBFD 291931Z 2920/3018 26007KT P6SM BKN035
     FM292300 27010G16KT 6SM -SHRA BKN018 OVC025
     FM300300 28008G14KT 4SM -SHRA BR OVC012
     FM300500 30004KT P6SM OVC040=



000
FTUS41 KCTP 291928 AAA
TAFJST
TAF AMD
KJST 291928Z 2919/3018 26012G22KT P6SM SCT030
     FM292300 28011G17KT P6SM BKN035
     FM300500 28011KT P6SM BKN025
     FM301200 29006KT P6SM OVC015=



000
FTUS41 KCTP 291748
TAFIPT
TAF
KIPT 291748Z 2918/3018 25009KT P6SM BKN090 OVC110
     FM300700 28004KT P6SM BKN080
     FM301000 28004KT P6SM BKN080=



000
FTUS41 KCTP 291748
TAFBFD
TAF
KBFD 291748Z 2918/3018 26007KT P6SM BKN028 BKN035
     FM292300 27010G16KT 6SM -SHRA BKN018 OVC025
     FM300300 28008G14KT 4SM -SHRA BR OVC012
     FM300500 30004KT P6SM OVC040=



000
FTUS41 KCTP 291748
TAFUNV
TAF
KUNV 291748Z 2918/3018 29007KT P6SM SCT045
     FM292300 28011G17KT P6SM BKN035
     FM300400 29005KT P6SM BKN050=



000
FTUS41 KCTP 291748
TAFAOO
TAF
KAOO 291748Z 2918/3018 28010KT P6SM VCSH FEW090 BKN120
     FM291900 25010G20KT P6SM BKN035
     FM292300 28011G17KT P6SM BKN040
     FM300600 30005KT P6SM OVC050=



000
FTUS41 KCTP 291748
TAFMDT
TAF
KMDT 291748Z 2918/3018 26003KT P6SM -RA OVC060
     FM292100 30007KT P6SM OVC050
     FM300500 30004KT P6SM OVC050=



000
FTUS41 KCTP 291748
TAFJST
TAF
KJST 291748Z 2918/3018 26011G20KT P6SM VCSH FEW030
     FM291900 26012G22KT P6SM BKN030 BKN070
     FM292300 28011G17KT P6SM BKN035
     FM300500 28011KT P6SM BKN025
     FM301200 29006KT P6SM OVC015=



000
FTUS41 KCTP 291557 AAB
TAFAOO
TAF AMD
KAOO 291557Z 2916/3012 26010G20KT P6SM VCSH BKN060 OVC100
     FM291900 25010G20KT P6SM BKN035
     FM292300 28011G17KT P6SM BKN035=



000
FTUS41 KCTP 291541 AAB
TAFBFD
TAF AMD
KBFD 291541Z 2916/3012 25008G15KT P6SM BKN025
     FM292300 27010G16KT 6SM -SHRA BKN018 OVC025
     FM300300 28008G14KT 4SM -SHRA BR OVC012=



000
FTUS41 KCTP 291436 AAA
TAFIPT
TAF AMD
KIPT 291436Z 2915/3012 27008KT P6SM OVC070
     FM291700 26010G18KT P6SM BKN050
     FM300700 28004KT P6SM BKN100=



000
FTUS41 KCTP 291436 AAB
TAFMDT
TAF AMD
KMDT 291436Z 2915/3012 31009KT P6SM SCT045 OVC070
      TEMPO 2915/2917 27013G22KT 4SM SHRA BKN035 OVC050
     FM291700 27008G15KT P6SM SCT040 BKN080
     FM292100 30007KT P6SM OVC100=



000
FTUS41 KCTP 291436 AAA
TAFAOO
TAF AMD
KAOO 291436Z 2915/3012 26006KT P6SM VCSH BKN060 OVC100
     FM291900 25010G20KT P6SM BKN035
     FM292300 28011G17KT P6SM BKN035=



000
FTUS41 KCTP 291436 AAA
TAFBFD
TAF AMD
KBFD 291436Z 2915/3012 25004KT P6SM FEW009
     FM292300 27010G16KT 6SM -SHRA BKN018 OVC025
     FM300300 28008G14KT 4SM -SHRA BR OVC012=



000
FTUS41 KCTP 291436 AAA
TAFUNV
TAF AMD
KUNV 291436Z 2915/3012 27008KT P6SM BKN070 BKN120
     FM291800 26010G20KT P6SM BKN035
     FM292300 28011G17KT P6SM BKN035=



000
FTUS41 KCTP 291436 AAA
TAFJST
TAF AMD
KJST 291436Z 2915/3012 26013KT P6SM VCSH BKN060 BKN120
     FM291900 26012G22KT P6SM BKN030 BKN070
     FM292300 28011G17KT P6SM BKN035=



000
FTUS41 KCTP 291206 AAA
TAFMDT
TAF AMD
KMDT 291206Z 2912/3012 30012G20KT P6SM VCSH SCT050 OVC070
     FM291300 26007G15KT P6SM -SHRA BKN050 OVC080
      TEMPO 2913/2917 27013G22KT 4SM SHRA BKN035 OVC050
     FM291700 27008G15KT P6SM SCT040 BKN080=



000
FTUS41 KCTP 291139
TAFIPT
TAF
KIPT 291139Z 2912/3012 24007KT P6SM -SHRA BKN070 OVC100
     FM291300 26008KT P6SM SCT070 BKN130
     FM291700 26010G18KT P6SM BKN050=



000
FTUS41 KCTP 291139
TAFUNV
TAF
KUNV 291139Z 2912/3012 23006KT P6SM VCSH BKN080 OVC110
     FM291300 26008G15KT P6SM BKN090 OVC110
     FM291800 26010G20KT P6SM BKN035
     FM292300 28011G17KT P6SM BKN035=



000
FTUS41 KCTP 291139
TAFJST
TAF
KJST 291139Z 2912/3012 26010KT P6SM -SHRA BKN050 OVC090
     FM291300 25009G17KT P6SM SCT030 BKN090
     FM291900 26012G22KT P6SM BKN030 BKN070=



000
FTUS41 KCTP 291139
TAFBFD
TAF
KBFD 291139Z 2912/3012 24006KT P6SM SCT020 BKN150
     FM291500 25010G18KT P6SM BKN035 OVC050
     FM292300 27010G16KT 6SM -SHRA BKN018 OVC025
     FM300300 28008G14KT 4SM -SHRA BR OVC012=



000
FTUS41 KCTP 291139
TAFMDT
TAF
KMDT 291139Z 2912/3012 27005KT P6SM VCSH SCT050 OVC070
     FM291300 26007G15KT P6SM -SHRA BKN050 OVC080
      TEMPO 2913/2917 27013G22KT 4SM SHRA BKN035 OVC050
     FM291700 27008G15KT P6SM SCT040 BKN080=



000
FTUS41 KCTP 291139
TAFAOO
TAF
KAOO 291139Z 2912/3012 23006KT P6SM -SHRA BKN070 OVC100
     FM291300 25008G15KT P6SM BKN070 OVC110
     FM291900 25010G20KT P6SM BKN035
     FM292300 28011G17KT P6SM BKN035=



000
FTUS41 KCTP 291108 AAC
TAFMDT
TAF AMD
KMDT 291108Z 2911/3006 27005KT P6SM VCSH SCT080 OVC110
     FM291200 26007G15KT P6SM -SHRA BKN050 OVC100
      TEMPO 2913/2917 27013G22KT 4SM SHRA BKN030 OVC050
     FM291700 27008G15KT P6SM SCT040 BKN080=



000
FTUS41 KCTP 291107 AAB
TAFUNV
TAF AMD
KUNV 291107Z 2911/3006 23006KT P6SM -RA BKN080 OVC110
     FM291200 26008G15KT P6SM BKN090 OVC110
     FM291400 26010G20KT P6SM BKN035
     FM292300 28011G17KT P6SM BKN035=



000
FTUS41 KCTP 291107 AAB
TAFAOO
TAF AMD
KAOO 291107Z 2911/3006 23006KT P6SM -SHRA BKN070 OVC100
     FM291300 25008G15KT P6SM BKN070 OVC110
     FM291600 26010G20KT P6SM BKN035
     FM292300 28011G17KT P6SM BKN035=



000
FTUS41 KCTP 290928 AAB
TAFMDT
TAF AMD
KMDT 290928Z 2909/3006 28006KT P6SM VCSH SCT080 OVC110
     FM291100 26007G15KT P6SM -SHRA BKN050 OVC100
      TEMPO 2912/2916 27013G22KT 4SM SHRA BKN030 OVC050
     FM291600 27008G15KT P6SM SCT040 BKN080=



000
FTUS41 KCTP 290924 AAA
TAFMDT
TAF AMD
KMDT 290924Z 2909/3006 28006KT P6SM VCSH SCT080 OVC110
     FM291100 26007G15KT P6SM -SHRA BKN050 OVC100
     FM291600 27008G15KT P6SM SCT040 BKN080=



000
FTUS41 KCTP 290923 AAA
TAFIPT
TAF AMD
KIPT 290923Z 2909/3006 27009KT P6SM -SHRA BKN070 OVC110
     FM291100 26008KT P6SM SCT040 BKN070
     FM291400 26010G18KT P6SM BKN050=



000
FTUS41 KCTP 290922 AAA
TAFUNV
TAF AMD
KUNV 290922Z 2909/3006 25008KT P6SM -RA BKN080 OVC100
     FM291100 26010G15KT P6SM BKN090 OVC110
     FM291400 26010G20KT P6SM BKN035
     FM292300 28011G17KT P6SM BKN035=



000
FTUS41 KCTP 290921 AAA
TAFJST
TAF AMD
KJST 290921Z 2909/3006 27010KT P6SM -SHRA BKN050 OVC090
     FM291100 26009G17KT P6SM SCT030 BKN090
     FM291300 27012G22KT P6SM BKN030 BKN070=



000
FTUS41 KCTP 290920 AAA
TAFAOO
TAF AMD
KAOO 290920Z 2909/3006 26006KT P6SM -SHRA BKN070 OVC090
     FM291100 26010G15KT P6SM BKN070 OVC110
     FM291400 26010G20KT P6SM BKN035
     FM292300 28011G17KT P6SM BKN035=



000
FTUS41 KCTP 290919 AAA
TAFBFD
TAF AMD
KBFD 290919Z 2909/3006 25006KT P6SM SCT020 BKN100
     FM291300 26010G18KT P6SM BKN035 OVC050
     FM292300 27010G16KT 6SM -SHRA BKN018 OVC025=



000
FTUS41 KCTP 290539
TAFMDT
TAF
KMDT 290539Z 2906/3006 22006KT P6SM VCSH SCT100 BKN250
     FM290700 26007G15KT P6SM -SHRA BKN050 OVC100
     FM291600 27008G15KT P6SM SCT040 BKN080=



000
FTUS41 KCTP 290539
TAFBFD
TAF
KBFD 290539Z 2906/3006 25008G15KT P6SM SCT030 BKN100
     FM291300 26010G18KT P6SM BKN035 OVC050
     FM292300 27010G16KT 6SM -SHRA BKN018 OVC025=



000
FTUS41 KCTP 290539
TAFJST
TAF
KJST 290539Z 2906/3006 25008G16KT P6SM -SHRA OVC030
     FM290800 26009G17KT P6SM SCT030 BKN070
     FM291300 27012G22KT P6SM BKN030 BKN070=



000
FTUS41 KCTP 290539
TAFIPT
TAF
KIPT 290539Z 2906/3006 27011G19KT P6SM -SHRA BKN070 OVC100
     FM291000 25008G15KT P6SM SCT040 BKN070
     FM291400 26010G18KT P6SM BKN050=



000
FTUS41 KCTP 290539
TAFAOO
TAF
KAOO 290539Z 2906/3006 26011G18KT P6SM -SHRA BKN025 OVC090
     FM290800 26010G15KT P6SM BKN070 OVC110
     FM291400 26010G20KT P6SM BKN035
     FM292300 28011G17KT P6SM BKN035=



000
FTUS41 KCTP 290539
TAFUNV
TAF
KUNV 290539Z 2906/3006 26007KT P6SM VCSH BKN070 OVC110
     FM290800 26010G15KT P6SM BKN070 OVC110
     FM291400 26010G20KT P6SM BKN035
     FM292300 28011G17KT P6SM BKN035=



000
FTUS41 KCTP 290455 AAB
TAFAOO
TAF AMD
KAOO 290455Z 2905/2924 25010G16KT P6SM -SHRA SCT035 OVC070
     FM290900 27007KT P6SM SCT030
     FM291400 26008G20KT P6SM BKN040=



000
FTUS41 KCTP 290455 AAC
TAFJST
TAF AMD
KJST 290455Z 2905/2924 25011G18KT P6SM -SHRA BKN012 OVC025
     FM290800 28008KT P6SM SCT030
     FM291300 27010G20KT P6SM BKN035=



000
FTUS41 KCTP 290454 AAB
TAFUNV
TAF AMD
KUNV 290454Z 2905/2924 24007KT P6SM -SHRA BKN070 OVC100
     FM290900 27007KT P6SM SCT030
     FM291400 26008G20KT P6SM BKN040=



000
FTUS41 KCTP 290454 AAB
TAFUNV
TAF AMD
KUNV 290454Z 2905/2924 24007KT P6SM -SHRA BKN070 OVC100
     FM290900 27007KT P6SM SCT030
     FM291400 26008G20KT P6SM BKN040=



000
FTUS41 KCTP 290453 AAB
TAFIPT
TAF AMD
KIPT 290453Z 2905/2924 17007KT P6SM -SHRA OVC090
     FM291000 27007KT P6SM SCT030
     FM291400 26008G15KT P6SM BKN040=



000
FTUS41 KCTP 290453 AAB
TAFIPT
TAF AMD
KIPT 290453Z 2905/2924 17007KT P6SM -SHRA OVC090
     FM291000 27007KT P6SM SCT030
     FM291400 26008G15KT P6SM BKN040=



000
FTUS41 KCTP 290335 AAB
TAFJST
TAF AMD
KJST 290335Z 2904/2924 25010G20KT P6SM -SHRA SCT009 BKN012 OVC035
     FM290800 28008KT P6SM SCT030
     FM291300 27010G20KT P6SM BKN035=



000
FTUS41 KCTP 290331 AAA
TAFIPT
TAF AMD
KIPT 290331Z 2904/2924 17008G16KT P6SM -SHRA BKN090
     FM291000 27007KT P6SM SCT030
     FM291400 26008G15KT P6SM BKN040=



000
FTUS41 KCTP 290331 AAA
TAFMDT
TAF AMD
KMDT 290331Z 2904/2924 15007KT P6SM BKN250
     FM290700 29007KT P6SM -SHRA SCT035 BKN100
     FM291500 28008G15KT P6SM SCT040=



000
FTUS41 KCTP 290331 AAA
TAFUNV
TAF AMD
KUNV 290331Z 2904/2924 24008G16KT P6SM -SHRA SCT035 BKN070
     FM290900 27007KT P6SM SCT030
     FM291400 26008G20KT P6SM BKN040=



000
FTUS41 KCTP 290331 AAA
TAFAOO
TAF AMD
KAOO 290331Z 2904/2924 25008G20KT P6SM -SHRA SCT035 BKN070
     FM290900 27007KT P6SM SCT030
     FM291400 26008G20KT P6SM BKN040=



000
FTUS41 KCTP 290331 AAC
TAFBFD
TAF AMD
KBFD 290331Z 2904/2924 28008G15KT P6SM SCT015 BKN030
     FM290700 27007KT P6SM SCT030
     FM291300 26008G16KT P6SM BKN035=



000
FTUS41 KCTP 290331 AAA
TAFJST
TAF AMD
KJST 290331Z 2904/2924 25010G20KT P6SM -SHRA SCT012 BKN025 OVC035
     FM290800 28008KT P6SM SCT030
     FM291300 27010G20KT P6SM BKN035=



000
FTUS41 KCTP 290218 AAB
TAFBFD
TAF AMD
KBFD 290218Z 2902/2924 24007G15KT 4SM -SHRA BR BKN009 OVC035
     FM290400 26007G15KT P6SM BKN035
     FM290700 27007KT P6SM SCT030
     FM291300 26008G16KT P6SM BKN035=



000
FTUS41 KCTP 290154 AAA
TAFBFD
TAF AMD
KBFD 290154Z 2902/2924 24007G15KT 4SM -SHRA BR SCT009 BKN012 OVC035
     FM290400 26007G15KT P6SM BKN035
     FM290700 27007KT P6SM SCT030
     FM291300 26008G16KT P6SM BKN035=



000
FTUS41 KCTP 282336
TAFIPT
TAF
KIPT 282336Z 2900/2924 17008G20KT P6SM BKN100
     FM290400 21007KT P6SM -SHRA SCT035 BKN090
     FM291100 27007KT P6SM SCT030
     FM291400 26008G15KT P6SM BKN040=



000
FTUS41 KCTP 282336
TAFMDT
TAF
KMDT 282336Z 2900/2924 15007KT P6SM BKN250
     FM291200 29007KT P6SM -SHRA SCT035 BKN100
     FM291500 28008G15KT P6SM SCT040=



000
FTUS41 KCTP 282336
TAFJST
TAF
KJST 282336Z 2900/2924 22012G22KT P6SM SCT035 BKN090
     FM290300 26010G20KT P6SM -SHRA BKN035 OVC080
     FM290900 28008KT P6SM SCT030
     FM291300 27010G20KT P6SM BKN035=



000
FTUS41 KCTP 282336
TAFUNV
TAF
KUNV 282336Z 2900/2924 23010G20KT P6SM BKN100
     FM290200 26008G15KT P6SM -SHRA SCT035 BKN090
     FM290900 27007KT P6SM SCT030
     FM291400 26008G20KT P6SM BKN040=



000
FTUS41 KCTP 282336
TAFBFD
TAF
KBFD 282336Z 2900/2924 26007KT 1SM SHRA BR OVC035
     FM290700 27007KT P6SM SCT030
     FM291300 26008G16KT P6SM BKN035=



000
FTUS41 KCTP 282336
TAFAOO
TAF
KAOO 282336Z 2900/2924 23012G24KT P6SM BKN100
     FM290400 26008G16KT P6SM -SHRA SCT035 BKN090
     FM291000 27007KT P6SM SCT030
     FM291400 26008G20KT P6SM BKN040=



000
FTUS41 KCTP 282130 AAB
TAFBFD
TAF AMD
KBFD 282130Z 2822/2918 24015G26KT P6SM VCSH BKN050
     FM290600 27005KT P6SM VCSH OVC050
     FM291200 25005KT P6SM BKN250
     FM291500 26008G16KT P6SM OVC100=



000
FTUS41 KCTP 282130 AAB
TAFIPT
TAF AMD
KIPT 282130Z 2822/2918 17012G26KT P6SM BKN100
     FM290200 15007KT P6SM VCSH OVC080
     FM290900 29005KT P6SM OVC020
     FM291400 29007KT P6SM BKN100=



000
FTUS41 KCTP 282130 AAB
TAFJST
TAF AMD
KJST 282130Z 2822/2918 22018G30KT P6SM BKN090
     FM282300 22010G15KT P6SM -SHRA OVC080
     FM290600 27008KT P6SM VCSH OVC050
     FM291200 26010KT P6SM BKN250=



000
FTUS41 KCTP 282130 AAC
TAFAOO
TAF AMD
KAOO 282130Z 2822/2918 21018G30KT P6SM BKN100
     FM290000 23008KT P6SM VCSH BKN100
     FM290600 27007KT P6SM OVC050
     FM291700 27010KT P6SM BKN100=



000
FTUS41 KCTP 282130 AAB
TAFMDT
TAF AMD
KMDT 282130Z 2822/2918 15007G15KT P6SM BKN250
     FM291000 30005KT P6SM BKN200
     FM291400 30006KT P6SM BKN050=



000
FTUS41 KCTP 282130 AAB
TAFUNV
TAF AMD
KUNV 282130Z 2822/2918 23015G25KT P6SM BKN100
     FM290000 23008KT P6SM VCSH BKN100
     FM290600 27006KT P6SM OVC050
     FM291200 26007KT P6SM BKN250=



000
FTUS41 KCTP 282017 AAB
TAFAOO
TAF AMD
KAOO 282017Z 2820/2918 24021G30KT P6SM SKC
     FM290000 27007KT P6SM OVC050
     FM291700 27010KT P6SM BKN100=



000
FTUS41 KCTP 281904 AAA
TAFUNV
TAF AMD
KUNV 281904Z 2819/2918 24015G21KT P6SM SCT070
     FM282200 23008KT P6SM VCSH BKN100
     FM290600 27006KT P6SM OVC050
     FM291200 26007KT P6SM BKN250=



000
FTUS41 KCTP 281904 AAA
TAFJST
TAF AMD
KJST 281904Z 2819/2918 21012G25KT P6SM FEW060
     FM282300 22010G15KT P6SM -SHRA OVC100
     FM290600 27008KT P6SM VCSH OVC050
     FM291200 26010KT P6SM BKN250=



000
FTUS41 KCTP 281904 AAA
TAFMDT
TAF AMD
KMDT 281904Z 2819/2918 12006KT P6SM BKN250
     FM291000 30005KT P6SM BKN200
     FM291400 30006KT P6SM BKN050=



000
FTUS41 KCTP 281904 AAA
TAFIPT
TAF AMD
KIPT 281904Z 2819/2918 17012KT P6SM SKC
     FM282300 15007KT P6SM VCSH OVC080
     FM290900 29005KT P6SM OVC020
     FM291400 29007KT P6SM BKN100=



000
FTUS41 KCTP 281904 AAA
TAFBFD
TAF AMD
KBFD 281904Z 2819/2918 24013G27KT P6SM SCT050
     FM282200 22010G15KT 6SM -SHRA OVC050
     FM290600 27005KT P6SM VCSH OVC050
     FM291200 25005KT P6SM BKN250
     FM291500 26008G16KT P6SM OVC100=



000
FTUS41 KCTP 281904 AAA
TAFAOO
TAF AMD
KAOO 281904Z 2819/2918 24021G35KT P6SM SKC
     FM282000 23008KT P6SM VCSH BKN100
     FM290600 27007KT P6SM OVC050
     FM291700 27010KT P6SM BKN100=



000
FTUS41 KCTP 281720
TAFAOO
TAF
KAOO 281720Z 2818/2918 23015G25KT P6SM BKN200
     FM282000 23008KT P6SM VCSH BKN100
     FM290600 27007KT P6SM OVC050
     FM291700 27010KT P6SM BKN100=



000
FTUS41 KCTP 281720
TAFUNV
TAF
KUNV 281720Z 2818/2918 21010G20KT P6SM BKN200
     FM282200 23008KT P6SM VCSH BKN100
     FM290600 27006KT P6SM OVC050
     FM291200 26007KT P6SM BKN250=



000
FTUS41 KCTP 281720
TAFBFD
TAF
KBFD 281720Z 2818/2918 23015G25KT P6SM SCT200
     FM282200 22010G15KT 6SM -SHRA OVC050
     FM290600 27005KT P6SM VCSH OVC050
     FM291200 25005KT P6SM BKN250
     FM291500 26008G16KT P6SM OVC100=



000
FTUS41 KCTP 281720
TAFMDT
TAF
KMDT 281720Z 2818/2918 18005KT P6SM BKN200
     FM291000 30005KT P6SM BKN200
     FM291400 30006KT P6SM BKN050=



000
FTUS41 KCTP 281720
TAFJST
TAF
KJST 281720Z 2818/2918 23020G30KT P6SM SCT040 BKN200
     FM282300 22010G15KT P6SM -SHRA OVC100
     FM290600 27008KT P6SM VCSH OVC050
     FM291200 26010KT P6SM BKN250=



000
FTUS41 KCTP 281720
TAFIPT
TAF
KIPT 281720Z 2818/2918 12007KT P6SM SCT050 BKN200
     FM282300 15007KT P6SM VCSH OVC080
     FM290900 29005KT P6SM OVC020
     FM291400 29007KT P6SM BKN100=



000
FTUS41 KCTP 281515 AAA
TAFAOO
TAF AMD
KAOO 281515Z 2815/2912 21011KT P6SM BKN200
     FM282000 23008KT P6SM VCSH BKN100
     FM290600 27007KT P6SM OVC050=



000
FTUS41 KCTP 281513 AAA
TAFJST
TAF AMD
KJST 281513Z 2815/2912 23015G25KT P6SM BKN200
     FM282300 22010G15KT P6SM -SHRA OVC100
     FM290600 27008KT P6SM VCSH OVC050=



000
FTUS41 KCTP 281512 AAB
TAFBFD
TAF AMD
KBFD 281512Z 2815/2912 23010G20KT P6SM BKN200
     FM282200 22010G15KT 6SM -SHRA OVC050
     FM290600 27005KT P6SM VCSH OVC050=



000
FTUS41 KCTP 281510 AAA
TAFBFD
TAF AMD
KBFD 281510Z 2815/2912 21010G20KT P6SM BKN200
     FM282200 22010G15KT 6SM -SHRA OVC050
     FM290600 27005KT P6SM VCSH OVC050=



    US Dept of Commerce
    National Oceanic and Atmospheric Administration
    National Weather Service
    1325 East West Highway
    Silver Spring, MD 20910
    Page Author: NWS Internet Services Team
Disclaimer
Information Quality
Credits
Glossary
Privacy Policy
Freedom of Information Act (FOIA)
About Us
Career Opportunities